sensor_id;sensor_type;location;lat;lon;timestamp;pressure;altitude;pressure_sealevel;temperature;humidity
26087;BME280;13851;43.434;28.338;2022-10-16T00:01:11;100562.31;;;12.79;100.00
26087;BME280;13851;43.434;28.338;2022-10-16T00:03:39;100417.31;;;11.88;100.00
26087;BME280;13851;43.434;28.338;2022-10-16T00:06:05;100529.63;;;12.53;100.00
26087;BME280;13851;43.434;28.338;2022-10-16T00:08:31;100585.22;;;12.80;100.00
26087;BME280;13851;43.434;28.338;2022-10-16T00:13:37;100594.97;;;12.82;100.00
26087;BME280;13851;43.434;28.338;2022-10-16T00:16:03;100590.63;;;12.57;100.00
26087;BME280;13851;43.434;28.338;2022-10-16T00:18:29;100578.94;;;12.55;100.00
26087;BME280;13851;43.434;28.338;2022-10-16T00:21:01;100448.53;;;11.70;100.00
26087;BME280;13851;43.434;28.338;2022-10-16T00:23:26;100623.91;;;12.70;100.00
26087;BME280;13851;43.434;28.338;2022-10-16T00:26:00;100586.88;;;12.49;100.00
26087;BME280;13851;43.434;28.338;2022-10-16T00:28:26;100606.38;;;12.63;100.00
26087;BME280;13851;43.434;28.338;2022-10-16T00:30:52;100501.88;;;11.84;100.00
26087;BME280;13851;43.434;28.338;2022-10-16T00:33:18;100601.84;;;12.39;100.00
26087;BME280;13851;43.434;28.338;2022-10-16T00:35:43;100599.75;;;12.41;100.00
26087;BME280;13851;43.434;28.338;2022-10-16T00:38:10;100638.38;;;12.47;100.00
26087;BME280;13851;43.434;28.338;2022-10-16T00:40:35;100427.50;;;11.38;100.00
26087;BME280;13851;43.434;28.338;2022-10-16T00:43:01;100622.41;;;12.51;100.00
26087;BME280;13851;43.434;28.338;2022-10-16T00:45:26;100587.13;;;12.23;100.00
26087;BME280;13851;43.434;28.338;2022-10-16T00:47:54;100595.84;;;12.27;100.00
26087;BME280;13851;43.434;28.338;2022-10-16T00:50:30;100480.28;;;11.65;100.00
26087;BME280;13851;43.434;28.338;2022-10-16T00:52:57;100566.72;;;12.10;100.00
26087;BME280;13851;43.434;28.338;2022-10-16T00:55:24;100587.13;;;12.23;100.00
26087;BME280;13851;43.434;28.338;2022-10-16T00:57:50;100457.66;;;11.38;100.00
26087;BME280;13851;43.434;28.338;2022-10-16T01:00:19;100632.56;;;12.42;100.00
26087;BME280;13851;43.434;28.338;2022-10-16T01:02:52;100601.84;;;12.31;100.00
26087;BME280;13851;43.434;28.338;2022-10-16T01:05:18;100640.13;;;12.40;100.00
26087;BME280;13851;43.434;28.338;2022-10-16T01:07:58;100626.72;;;12.37;100.00
26087;BME280;13851;43.434;28.338;2022-10-16T01:18:14;100636.88;;;12.37;100.00
26087;BME280;13851;43.434;28.338;2022-10-16T01:20:48;100605.50;;;12.07;100.00
26087;BME280;13851;43.434;28.338;2022-10-16T01:29:03;100663.84;;;12.25;100.00
26087;BME280;13851;43.434;28.338;2022-10-16T01:31:36;100614.44;;;12.09;100.00
26087;BME280;13851;43.434;28.338;2022-10-16T01:34:05;100574.97;;;11.85;100.00
26087;BME280;13851;43.434;28.338;2022-10-16T01:36:39;100609.63;;;11.94;100.00
26087;BME280;13851;43.434;28.338;2022-10-16T01:39:10;100639.47;;;12.22;100.00
26087;BME280;13851;43.434;28.338;2022-10-16T01:41:43;100620.09;;;12.15;100.00
26087;BME280;13851;43.434;28.338;2022-10-16T01:44:17;100648.22;;;12.26;100.00
26087;BME280;13851;43.434;28.338;2022-10-16T01:46:48;100646.50;;;12.25;100.00
26087;BME280;13851;43.434;28.338;2022-10-16T01:49:16;100644.63;;;12.17;100.00
26087;BME280;13851;43.434;28.338;2022-10-16T01:51:45;100652.69;;;12.27;100.00
26087;BME280;13851;43.434;28.338;2022-10-16T01:54:12;100594.53;;;11.90;100.00
26087;BME280;13851;43.434;28.338;2022-10-16T01:56:39;100645.13;;;12.20;100.00
26087;BME280;13851;43.434;28.338;2022-10-16T01:59:25;100685.13;;;12.31;100.00
26087;BME280;13851;43.434;28.338;2022-10-16T02:01:59;100658.34;;;12.17;100.00
26087;BME280;13851;43.434;28.338;2022-10-16T02:04:31;100500.88;;;11.28;100.00
26087;BME280;13851;43.434;28.338;2022-10-16T02:06:58;100634.00;;;12.14;100.00
26087;BME280;13851;43.434;28.338;2022-10-16T02:09:24;100653.72;;;12.26;100.00
26087;BME280;13851;43.434;28.338;2022-10-16T02:11:53;100653.19;;;12.22;100.00
26087;BME280;13851;43.434;28.338;2022-10-16T02:14:21;100626.09;;;12.03;100.00
26087;BME280;13851;43.434;28.338;2022-10-16T02:16:49;100620.97;;;12.00;100.00
26087;BME280;13851;43.434;28.338;2022-10-16T02:19:16;100658.34;;;12.25;100.00
26087;BME280;13851;43.434;28.338;2022-10-16T02:21:57;100648.06;;;12.19;100.00
26087;BME280;13851;43.434;28.338;2022-10-16T02:27:05;100692.69;;;12.13;100.00
26087;BME280;13851;43.434;28.338;2022-10-16T02:29:39;100611.16;;;11.97;100.00
26087;BME280;13851;43.434;28.338;2022-10-16T02:32:07;100626.28;;;11.93;100.00
26087;BME280;13851;43.434;28.338;2022-10-16T02:34:36;100696.44;;;12.28;100.00
26087;BME280;13851;43.434;28.338;2022-10-16T02:37:04;100668.66;;;12.15;100.00
26087;BME280;13851;43.434;28.338;2022-10-16T02:39:30;100654.56;;;12.18;100.00
26087;BME280;13851;43.434;28.338;2022-10-16T02:41:56;100642.94;;;12.00;100.00
26087;BME280;13851;43.434;28.338;2022-10-16T02:44:22;100656.28;;;12.03;100.00
26087;BME280;13851;43.434;28.338;2022-10-16T02:46:47;100679.66;;;12.15;100.00
26087;BME280;13851;43.434;28.338;2022-10-16T02:49:13;100680.69;;;12.14;100.00
26087;BME280;13851;43.434;28.338;2022-10-16T02:51:38;100537.91;;;11.32;100.00
26087;BME280;13851;43.434;28.338;2022-10-16T02:54:04;100650.13;;;12.01;100.00
26087;BME280;13851;43.434;28.338;2022-10-16T02:56:29;100655.97;;;12.06;100.00
26087;BME280;13851;43.434;28.338;2022-10-16T02:58:56;100681.03;;;12.19;100.00
26087;BME280;13851;43.434;28.338;2022-10-16T03:01:22;100660.59;;;11.97;100.00
26087;BME280;13851;43.434;28.338;2022-10-16T03:03:49;100646.00;;;12.05;100.00
26087;BME280;13851;43.434;28.338;2022-10-16T03:06:14;100678.94;;;12.13;100.00
26087;BME280;13851;43.434;28.338;2022-10-16T03:08:40;100620.28;;;11.89;100.00
26087;BME280;13851;43.434;28.338;2022-10-16T03:11:05;100676.06;;;12.14;100.00
26087;BME280;13851;43.434;28.338;2022-10-16T03:13:31;100695.44;;;12.13;100.00
26087;BME280;13851;43.434;28.338;2022-10-16T03:15:56;100624.56;;;11.84;100.00
26087;BME280;13851;43.434;28.338;2022-10-16T03:18:22;100663.47;;;11.79;100.00
26087;BME280;13851;43.434;28.338;2022-10-16T03:20:47;100677.25;;;12.04;100.00
26087;BME280;13851;43.434;28.338;2022-10-16T03:23:13;100698.88;;;12.07;100.00
26087;BME280;13851;43.434;28.338;2022-10-16T03:25:38;100659.03;;;11.78;100.00
26087;BME280;13851;43.434;28.338;2022-10-16T03:28:05;100658.72;;;11.89;100.00
26087;BME280;13851;43.434;28.338;2022-10-16T03:30:30;100698.88;;;12.15;100.00
26087;BME280;13851;43.434;28.338;2022-10-16T03:32:56;100688.06;;;12.05;100.00
26087;BME280;13851;43.434;28.338;2022-10-16T03:35:22;100681.72;;;12.05;100.00
26087;BME280;13851;43.434;28.338;2022-10-16T03:37:48;100714.31;;;12.00;100.00
26087;BME280;13851;43.434;28.338;2022-10-16T03:40:14;100686.16;;;11.89;100.00
26087;BME280;13851;43.434;28.338;2022-10-16T03:42:39;100560.69;;;11.25;100.00
26087;BME280;13851;43.434;28.338;2022-10-16T03:45:06;100693.41;;;11.99;100.00
26087;BME280;13851;43.434;28.338;2022-10-16T03:47:32;100666.56;;;11.76;100.00
26087;BME280;13851;43.434;28.338;2022-10-16T03:49:59;100709.81;;;11.82;100.00
26087;BME280;13851;43.434;28.338;2022-10-16T03:52:24;100709.81;;;11.82;100.00
26087;BME280;13851;43.434;28.338;2022-10-16T03:54:50;100718.56;;;11.78;100.00
26087;BME280;13851;43.434;28.338;2022-10-16T03:57:16;100599.75;;;11.18;100.00
26087;BME280;13851;43.434;28.338;2022-10-16T03:59:41;100673.75;;;11.53;100.00
26087;BME280;13851;43.434;28.338;2022-10-16T04:02:06;100696.41;;;11.63;100.00
26087;BME280;13851;43.434;28.338;2022-10-16T04:04:32;100673.03;;;11.42;100.00
26087;BME280;13851;43.434;28.338;2022-10-16T04:06:57;100623.56;;;11.10;100.00
26087;BME280;13851;43.434;28.338;2022-10-16T04:09:23;100694.63;;;11.45;100.00
26087;BME280;13851;43.434;28.338;2022-10-16T04:11:48;100668.38;;;11.27;100.00
26087;BME280;13851;43.434;28.338;2022-10-16T04:14:14;100663.69;;;11.19;100.00
26087;BME280;13851;43.434;28.338;2022-10-16T04:16:39;100683.25;;;11.24;100.00
26087;BME280;13851;43.434;28.338;2022-10-16T04:19:05;100568.84;;;10.41;100.00
26087;BME280;13851;43.434;28.338;2022-10-16T04:21:30;100713.78;;;11.21;100.00
26087;BME280;13851;43.434;28.338;2022-10-16T04:23:56;100651.59;;;10.87;100.00
26087;BME280;13851;43.434;28.338;2022-10-16T04:26:21;100688.28;;;10.94;100.00
26087;BME280;13851;43.434;28.338;2022-10-16T04:28:47;100603.91;;;10.38;100.00
26087;BME280;13851;43.434;28.338;2022-10-16T04:31:12;100685.91;;;11.00;100.00
26087;BME280;13851;43.434;28.338;2022-10-16T04:33:38;100509.50;;;9.90;100.00
26087;BME280;13851;43.434;28.338;2022-10-16T04:36:03;100664.06;;;10.82;100.00
26087;BME280;13851;43.434;28.338;2022-10-16T04:38:30;100549.66;;;10.15;100.00
26087;BME280;13851;43.434;28.338;2022-10-16T04:40:56;100631.13;;;10.65;100.00
26087;BME280;13851;43.434;28.338;2022-10-16T04:43:21;100690.69;;;10.98;100.00
26087;BME280;13851;43.434;28.338;2022-10-16T04:45:47;100712.16;;;11.10;100.00
26087;BME280;13851;43.434;28.338;2022-10-16T04:48:13;100592.63;;;10.41;100.00
26087;BME280;13851;43.434;28.338;2022-10-16T04:50:38;100732.75;;;11.14;100.00
26087;BME280;13851;43.434;28.338;2022-10-16T04:53:04;100714.41;;;11.15;100.00
26087;BME280;13851;43.434;28.338;2022-10-16T04:55:29;100583.06;;;10.45;100.00
26087;BME280;13851;43.434;28.338;2022-10-16T04:57:55;100674.25;;;10.98;100.00
26087;BME280;13851;43.434;28.338;2022-10-16T05:00:20;100632.34;;;10.79;100.00
26087;BME280;13851;43.434;28.338;2022-10-16T05:02:49;100700.75;;;11.23;100.00
26087;BME280;13851;43.434;28.338;2022-10-16T05:05:14;100754.72;;;11.65;100.00
26087;BME280;13851;43.434;28.338;2022-10-16T05:07:40;100736.22;;;11.67;100.00
26087;BME280;13851;43.434;28.338;2022-10-16T05:10:05;100715.09;;;11.59;100.00
26087;BME280;13851;43.434;28.338;2022-10-16T05:12:31;100744.50;;;11.83;100.00
26087;BME280;13851;43.434;28.338;2022-10-16T05:14:57;100728.19;;;11.82;100.00
26087;BME280;13851;43.434;28.338;2022-10-16T05:17:24;100732.50;;;11.84;100.00
26087;BME280;13851;43.434;28.338;2022-10-16T05:19:50;100753.44;;;12.02;100.00
26087;BME280;13851;43.434;28.338;2022-10-16T05:22:16;100715.88;;;11.94;100.00
26087;BME280;13851;43.434;28.338;2022-10-16T05:24:41;100750.38;;;12.21;100.00
26087;BME280;13851;43.434;28.338;2022-10-16T05:27:07;100692.34;;;12.00;100.00
26087;BME280;13851;43.434;28.338;2022-10-16T05:29:32;100795.38;;;12.61;100.00
26087;BME280;13851;43.434;28.338;2022-10-16T05:31:58;100760.84;;;12.58;100.00
26087;BME280;13851;43.434;28.338;2022-10-16T05:34:24;100748.63;;;12.69;100.00
26087;BME280;13851;43.434;28.338;2022-10-16T05:36:49;100731.97;;;12.62;100.00
26087;BME280;13851;43.434;28.338;2022-10-16T05:39:15;100764.22;;;12.93;100.00
26087;BME280;13851;43.434;28.338;2022-10-16T05:41:42;100780.88;;;13.08;100.00
26087;BME280;13851;43.434;28.338;2022-10-16T05:44:08;100750.63;;;12.99;100.00
26087;BME280;13851;43.434;28.338;2022-10-16T05:46:33;100753.16;;;13.25;100.00
26087;BME280;13851;43.434;28.338;2022-10-16T05:48:59;100620.66;;;12.58;100.00
26087;BME280;13851;43.434;28.338;2022-10-16T05:51:24;100636.94;;;12.76;100.00
26087;BME280;13851;43.434;28.338;2022-10-16T05:53:50;100801.47;;;13.75;100.00
26087;BME280;13851;43.434;28.338;2022-10-16T05:56:16;100773.38;;;13.80;100.00
26087;BME280;13851;43.434;28.338;2022-10-16T05:58:42;100801.84;;;14.03;100.00
26087;BME280;13851;43.434;28.338;2022-10-16T06:01:15;100798.03;;;14.04;100.00
26087;BME280;13851;43.434;28.338;2022-10-16T06:03:41;100735.88;;;13.79;100.00
26087;BME280;13851;43.434;28.338;2022-10-16T06:06:15;100826.91;;;14.40;100.00
26087;BME280;13851;43.434;28.338;2022-10-16T06:08:41;100806.06;;;14.37;100.00
26087;BME280;13851;43.434;28.338;2022-10-16T06:11:12;100707.00;;;13.98;100.00
26087;BME280;13851;43.434;28.338;2022-10-16T06:13:38;100722.03;;;14.10;100.00
26087;BME280;13851;43.434;28.338;2022-10-16T06:16:06;100802.78;;;14.65;100.00
26087;BME280;13851;43.434;28.338;2022-10-16T06:18:32;100822.44;;;14.85;100.00
26087;BME280;13851;43.434;28.338;2022-10-16T06:20:57;100819.78;;;14.91;100.00
26087;BME280;13851;43.434;28.338;2022-10-16T06:23:24;100800.75;;;14.96;100.00
26087;BME280;13851;43.434;28.338;2022-10-16T06:25:49;100785.97;;;14.89;100.00
26087;BME280;13851;43.434;28.338;2022-10-16T06:28:15;100753.94;;;14.88;100.00
26087;BME280;13851;43.434;28.338;2022-10-16T06:30:42;100814.41;;;15.42;100.00
26087;BME280;13851;43.434;28.338;2022-10-16T06:33:10;100729.19;;;14.80;100.00
26087;BME280;13851;43.434;28.338;2022-10-16T06:35:35;100785.66;;;15.22;100.00
26087;BME280;13851;43.434;28.338;2022-10-16T06:38:01;100814.84;;;15.60;100.00
26087;BME280;13851;43.434;28.338;2022-10-16T06:40:27;100770.88;;;15.44;100.00
26087;BME280;13851;43.434;28.338;2022-10-16T06:42:55;100834.56;;;16.02;100.00
26087;BME280;13851;43.434;28.338;2022-10-16T06:45:20;100644.25;;;15.05;100.00
26087;BME280;13851;43.434;28.338;2022-10-16T06:47:46;100864.31;;;16.36;100.00
26087;BME280;13851;43.434;28.338;2022-10-16T06:50:11;100854.72;;;16.53;100.00
26087;BME280;13851;43.434;28.338;2022-10-16T06:52:37;100848.66;;;16.43;100.00
26087;BME280;13851;43.434;28.338;2022-10-16T06:55:02;100834.31;;;16.54;100.00
26087;BME280;13851;43.434;28.338;2022-10-16T06:57:28;100686.69;;;15.70;100.00
26087;BME280;13851;43.434;28.338;2022-10-16T06:59:54;100842.06;;;16.66;100.00
26087;BME280;13851;43.434;28.338;2022-10-16T07:02:19;100707.28;;;15.89;100.00
26087;BME280;13851;43.434;28.338;2022-10-16T07:04:45;100825.41;;;16.59;100.00
26087;BME280;13851;43.434;28.338;2022-10-16T07:07:10;100747.63;;;16.26;100.00
26087;BME280;13851;43.434;28.338;2022-10-16T07:09:36;100868.03;;;17.07;100.00
26087;BME280;13851;43.434;28.338;2022-10-16T07:12:01;100635.78;;;15.79;100.00
26087;BME280;13851;43.434;28.338;2022-10-16T07:14:27;100842.84;;;17.02;100.00
26087;BME280;13851;43.434;28.338;2022-10-16T07:16:53;100859.78;;;17.14;100.00
26087;BME280;13851;43.434;28.338;2022-10-16T07:19:18;100859.47;;;17.02;100.00
26087;BME280;13851;43.434;28.338;2022-10-16T07:21:44;100874.69;;;17.41;100.00
26087;BME280;13851;43.434;28.338;2022-10-16T07:24:14;100843.88;;;17.23;100.00
26087;BME280;13851;43.434;28.338;2022-10-16T07:26:41;100879.97;;;17.71;100.00
26087;BME280;13851;43.434;28.338;2022-10-16T07:29:16;100744.38;;;16.86;100.00
26087;BME280;13851;43.434;28.338;2022-10-16T07:31:42;100876.78;;;18.02;100.00
26087;BME280;13851;43.434;28.338;2022-10-16T07:34:08;100742.97;;;17.32;100.00
26087;BME280;13851;43.434;28.338;2022-10-16T07:36:34;100874.28;;;18.13;100.00
26087;BME280;13851;43.434;28.338;2022-10-16T07:39:00;100879.63;;;18.22;100.00
26087;BME280;13851;43.434;28.338;2022-10-16T07:41:25;100848.72;;;18.25;100.00
26087;BME280;13851;43.434;28.338;2022-10-16T07:43:52;100882.97;;;18.58;100.00
26087;BME280;13851;43.434;28.338;2022-10-16T07:46:22;100898.22;;;18.89;100.00
26087;BME280;13851;43.434;28.338;2022-10-16T07:48:48;100852.22;;;18.66;100.00
26087;BME280;13851;43.434;28.338;2022-10-16T07:51:16;100852.47;;;18.72;100.00
26087;BME280;13851;43.434;28.338;2022-10-16T07:53:42;100884.56;;;18.94;100.00
26087;BME280;13851;43.434;28.338;2022-10-16T07:56:08;100892.03;;;19.00;100.00
26087;BME280;13851;43.434;28.338;2022-10-16T07:58:34;100905.06;;;19.13;100.00
26087;BME280;13851;43.434;28.338;2022-10-16T08:01:07;100901.22;;;19.14;100.00
26087;BME280;13851;43.434;28.338;2022-10-16T08:03:33;100881.78;;;19.20;100.00
26087;BME280;13851;43.434;28.338;2022-10-16T08:05:59;100851.03;;;18.95;100.00
26087;BME280;13851;43.434;28.338;2022-10-16T08:08:26;100839.69;;;19.10;100.00
26087;BME280;13851;43.434;28.338;2022-10-16T08:10:52;100877.09;;;19.41;100.00
26087;BME280;13851;43.434;28.338;2022-10-16T08:13:17;100859.31;;;19.48;100.00
26087;BME280;13851;43.434;28.338;2022-10-16T08:15:44;100881.94;;;19.79;100.00
26087;BME280;13851;43.434;28.338;2022-10-16T08:18:11;100847.91;;;19.90;100.00
26087;BME280;13851;43.434;28.338;2022-10-16T08:20:36;100672.06;;;18.85;100.00
26087;BME280;13851;43.434;28.338;2022-10-16T08:23:02;100744.00;;;19.06;100.00
26087;BME280;13851;43.434;28.338;2022-10-16T08:25:29;100910.78;;;19.91;100.00
26087;BME280;13851;43.434;28.338;2022-10-16T08:27:55;100849.47;;;19.72;100.00
26087;BME280;13851;43.434;28.338;2022-10-16T08:30:23;100893.66;;;20.07;100.00
26087;BME280;13851;43.434;28.338;2022-10-16T08:32:49;100864.38;;;19.85;100.00
26087;BME280;13851;43.434;28.338;2022-10-16T08:35:17;100893.69;;;19.87;100.00
26087;BME280;13851;43.434;28.338;2022-10-16T08:37:44;100903.75;;;19.88;100.00
26087;BME280;13851;43.434;28.338;2022-10-16T08:40:18;100863.81;;;19.56;100.00
26087;BME280;13851;43.434;28.338;2022-10-16T08:48:52;100878.28;;;19.91;100.00
26087;BME280;13851;43.434;28.338;2022-10-16T08:51:35;100907.25;;;20.29;100.00
26087;BME280;13851;43.434;28.338;2022-10-16T08:54:10;100764.66;;;19.23;100.00
26087;BME280;13851;43.434;28.338;2022-10-16T08:56:40;100789.44;;;19.45;100.00
26087;BME280;13851;43.434;28.338;2022-10-16T08:59:10;100896.72;;;19.72;100.00
26087;BME280;13851;43.434;28.338;2022-10-16T09:01:42;100862.97;;;19.36;100.00
26087;BME280;13851;43.434;28.338;2022-10-16T09:04:34;100915.31;;;19.59;100.00
26087;BME280;13851;43.434;28.338;2022-10-16T09:12:40;100910.84;;;19.31;100.00
26087;BME280;13851;43.434;28.338;2022-10-16T09:15:27;100918.13;;;19.26;100.00
26087;BME280;13851;43.434;28.338;2022-10-16T09:20:53;100910.63;;;19.26;100.00
26087;BME280;13851;43.434;28.338;2022-10-16T09:23:34;100660.06;;;17.85;100.00
26087;BME280;13851;43.434;28.338;2022-10-16T09:26:01;100854.41;;;19.24;100.00
26087;BME280;13851;43.434;28.338;2022-10-16T09:28:28;100893.31;;;19.24;100.00
26087;BME280;13851;43.434;28.338;2022-10-16T09:30:53;100939.91;;;19.42;100.00
26087;BME280;13851;43.434;28.338;2022-10-16T09:33:23;100844.41;;;18.90;100.00
26087;BME280;13851;43.434;28.338;2022-10-16T09:35:54;100912.97;;;19.22;100.00
26087;BME280;13851;43.434;28.338;2022-10-16T09:38:39;100791.09;;;18.27;100.00
26087;BME280;13851;43.434;28.338;2022-10-16T09:41:23;100866.41;;;19.05;100.00
26087;BME280;13851;43.434;28.338;2022-10-16T09:43:56;100710.50;;;18.48;100.00
26087;BME280;13851;43.434;28.338;2022-10-16T09:46:28;100901.81;;;19.89;100.00
26087;BME280;13851;43.434;28.338;2022-10-16T09:49:00;100833.25;;;19.43;100.00
26087;BME280;13851;43.434;28.338;2022-10-16T09:51:31;100866.38;;;19.71;100.00
26087;BME280;13851;43.434;28.338;2022-10-16T09:54:02;100858.59;;;19.93;100.00
26087;BME280;13851;43.434;28.338;2022-10-16T09:56:37;100894.81;;;20.38;100.00
26087;BME280;13851;43.434;28.338;2022-10-16T09:59:23;100898.72;;;20.23;100.00
26087;BME280;13851;43.434;28.338;2022-10-16T10:01:56;100901.03;;;20.26;100.00
26087;BME280;13851;43.434;28.338;2022-10-16T10:04:38;100838.84;;;20.08;100.00
26087;BME280;13851;43.434;28.338;2022-10-16T10:07:05;100924.25;;;20.65;100.00
26087;BME280;13851;43.434;28.338;2022-10-16T10:09:36;100907.09;;;20.62;100.00
26087;BME280;13851;43.434;28.338;2022-10-16T10:12:04;100726.28;;;19.65;100.00
26087;BME280;13851;43.434;28.338;2022-10-16T10:14:40;100902.44;;;20.56;100.00
26087;BME280;13851;43.434;28.338;2022-10-16T10:17:12;100889.19;;;20.89;100.00
26087;BME280;13851;43.434;28.338;2022-10-16T10:19:58;100805.09;;;20.36;94.50
26087;BME280;13851;43.434;28.338;2022-10-16T10:22:30;100867.81;;;20.76;94.38
26087;BME280;13851;43.434;28.338;2022-10-16T10:27:43;100888.38;;;21.07;94.25
26087;BME280;13851;43.434;28.338;2022-10-16T10:30:34;100846.00;;;20.73;91.71
26087;BME280;13851;43.434;28.338;2022-10-16T10:41:11;100840.84;;;21.27;84.34
26087;BME280;13851;43.434;28.338;2022-10-16T10:49:46;100770.84;;;21.60;77.86
26087;BME280;13851;43.434;28.338;2022-10-16T10:52:41;100768.34;;;21.52;74.26
26087;BME280;13851;43.434;28.338;2022-10-16T10:55:19;100783.31;;;21.58;73.97
26087;BME280;13851;43.434;28.338;2022-10-16T11:01:11;100890.91;;;22.27;70.72
26087;BME280;13851;43.434;28.338;2022-10-16T11:06:23;100891.69;;;22.46;69.40
26087;BME280;13851;43.434;28.338;2022-10-16T11:11:31;100838.03;;;22.44;69.19
26087;BME280;13851;43.434;28.338;2022-10-16T11:14:14;100838.31;;;22.54;64.92
26087;BME280;13851;43.434;28.338;2022-10-16T11:16:52;100868.34;;;22.58;65.23
26087;BME280;13851;43.434;28.338;2022-10-16T11:22:44;100860.84;;;22.41;65.42
26087;BME280;13851;43.434;28.338;2022-10-16T11:25:27;100895.34;;;22.76;63.36
26087;BME280;13851;43.434;28.338;2022-10-16T11:28:10;100713.94;;;21.79;63.77
26087;BME280;13851;43.434;28.338;2022-10-16T11:31:08;100898.25;;;22.88;62.22
26087;BME280;13851;43.434;28.338;2022-10-16T11:34:41;100944.56;;;23.07;62.05
26087;BME280;13851;43.434;28.338;2022-10-16T11:36:38;100900.75;;;23.31;57.35
26087;BME280;13851;43.434;28.338;2022-10-16T11:39:13;100908.06;;;23.56;56.24
26087;BME280;13851;43.434;28.338;2022-10-16T11:42:10;100926.50;;;23.75;55.36
26087;BME280;13851;43.434;28.338;2022-10-16T11:47:34;100773.94;;;23.02;54.88
26087;BME280;13851;43.434;28.338;2022-10-16T11:55:24;100906.09;;;24.15;55.04
26087;BME280;13851;43.434;28.338;2022-10-16T11:58:25;100756.50;;;23.59;49.66
26087;BME280;13851;43.434;28.338;2022-10-16T12:03:26;100871.63;;;24.38;46.96
26087;BME280;13851;43.434;28.338;2022-10-16T12:08:33;100911.22;;;24.70;47.64
26087;BME280;13851;43.434;28.338;2022-10-16T12:17:02;100861.06;;;24.85;47.36
26087;BME280;13851;43.434;28.338;2022-10-16T12:19:29;100886.56;;;25.01;48.18
26087;BME280;13851;43.434;28.338;2022-10-16T12:21:58;100747.03;;;24.41;47.21
26087;BME280;13851;43.434;28.338;2022-10-16T12:24:51;100815.72;;;24.88;47.68
26087;BME280;13851;43.434;28.338;2022-10-16T12:27:26;100932.53;;;25.62;46.26
26087;BME280;13851;43.434;28.338;2022-10-16T12:30:04;100758.19;;;25.03;44.74
26087;BME280;13851;43.434;28.338;2022-10-16T12:32:36;100930.09;;;26.21;45.58
26087;BME280;13851;43.434;28.338;2022-10-16T12:35:04;100933.28;;;26.30;46.20
26087;BME280;13851;43.434;28.338;2022-10-16T12:37:33;100951.53;;;26.27;47.31
26087;BME280;13851;43.434;28.338;2022-10-16T12:40:04;100806.88;;;25.47;46.83
26087;BME280;13851;43.434;28.338;2022-10-16T12:42:36;100909.69;;;26.09;46.85
26087;BME280;13851;43.434;28.338;2022-10-16T12:45:23;100899.78;;;25.84;48.55
26087;BME280;13851;43.434;28.338;2022-10-16T12:47:51;100946.25;;;26.14;47.38
26087;BME280;13851;43.434;28.338;2022-10-16T12:50:36;100936.78;;;25.64;47.18
26087;BME280;13851;43.434;28.338;2022-10-16T12:53:19;100922.31;;;25.56;48.00
26087;BME280;13851;43.434;28.338;2022-10-16T12:55:56;100895.63;;;25.53;48.45
26087;BME280;13851;43.434;28.338;2022-10-16T13:01:48;100911.63;;;25.70;49.99
26087;BME280;13851;43.434;28.338;2022-10-16T13:04:25;100935.41;;;25.84;49.78
26087;BME280;13851;43.434;28.338;2022-10-16T13:10:24;100779.94;;;24.96;48.43
26087;BME280;13851;43.434;28.338;2022-10-16T13:15:57;100924.44;;;25.65;50.92
26087;BME280;13851;43.434;28.338;2022-10-16T13:21:25;100942.16;;;25.83;48.89
26087;BME280;13851;43.434;28.338;2022-10-16T13:24:23;100810.88;;;25.01;48.83
26087;BME280;13851;43.434;28.338;2022-10-16T13:27:35;100939.25;;;25.78;47.47
26087;BME280;13851;43.434;28.338;2022-10-16T13:30:16;100933.53;;;25.73;47.48
26087;BME280;13851;43.434;28.338;2022-10-16T13:32:48;100852.09;;;25.51;47.44
26087;BME280;13851;43.434;28.338;2022-10-16T13:35:19;100938.72;;;25.98;49.24
26087;BME280;13851;43.434;28.338;2022-10-16T13:37:45;100910.16;;;25.84;50.54
26087;BME280;13851;43.434;28.338;2022-10-16T13:40:23;100924.03;;;25.90;51.03
26087;BME280;13851;43.434;28.338;2022-10-16T13:42:53;100830.03;;;25.21;52.11
26087;BME280;13851;43.434;28.338;2022-10-16T13:45:25;100837.41;;;25.10;52.26
26087;BME280;13851;43.434;28.338;2022-10-16T13:48:02;100826.50;;;24.97;54.07
26087;BME280;13851;43.434;28.338;2022-10-16T13:50:28;100902.63;;;25.34;54.40
26087;BME280;13851;43.434;28.338;2022-10-16T13:53:04;100804.22;;;24.73;55.47
26087;BME280;13851;43.434;28.338;2022-10-16T13:55:31;100864.59;;;24.64;58.17
26087;BME280;13851;43.434;28.338;2022-10-16T13:58:13;100922.91;;;24.96;59.58
26087;BME280;13851;43.434;28.338;2022-10-16T14:00:39;100950.25;;;24.88;59.17
26087;BME280;13851;43.434;28.338;2022-10-16T14:03:16;100909.22;;;24.54;60.01
26087;BME280;13851;43.434;28.338;2022-10-16T14:05:48;100937.16;;;24.77;59.87
26087;BME280;13851;43.434;28.338;2022-10-16T14:08:14;100947.25;;;24.78;59.95
26087;BME280;13851;43.434;28.338;2022-10-16T14:10:40;100948.44;;;24.82;59.99
26087;BME280;13851;43.434;28.338;2022-10-16T14:13:07;100802.72;;;23.97;59.33
26087;BME280;13851;43.434;28.338;2022-10-16T14:15:35;100941.81;;;24.60;60.00
26087;BME280;13851;43.434;28.338;2022-10-16T14:18:01;100955.56;;;24.73;59.95
26087;BME280;13851;43.434;28.338;2022-10-16T14:20:30;100928.22;;;24.52;61.15